sensor_id;sensor_type;location;lat;lon;timestamp;temperature;humidity
40504;DHT22;42292;49.048;8.374;2022-12-10T00:01:33;2.80;99.90
40504;DHT22;42292;49.048;8.374;2022-12-10T00:03:59;2.80;99.90
40504;DHT22;42292;49.048;8.374;2022-12-10T00:06:29;2.80;99.90
40504;DHT22;42292;49.048;8.374;2022-12-10T00:08:58;2.80;99.90
40504;DHT22;42292;49.048;8.374;2022-12-10T00:11:24;2.70;99.90
40504;DHT22;42292;49.048;8.374;2022-12-10T00:13:50;2.70;99.90
40504;DHT22;42292;49.048;8.374;2022-12-10T00:16:19;2.80;99.90
40504;DHT22;42292;49.048;8.374;2022-12-10T00:18:50;2.70;99.90
40504;DHT22;42292;49.048;8.374;2022-12-10T00:21:21;2.70;99.90
40504;DHT22;42292;49.048;8.374;2022-12-10T00:23:48;2.70;99.90
40504;DHT22;42292;49.048;8.374;2022-12-10T00:26:22;2.70;99.90
40504;DHT22;42292;49.048;8.374;2022-12-10T00:28:48;2.70;99.90
40504;DHT22;42292;49.048;8.374;2022-12-10T00:31:28;2.70;99.90
40504;DHT22;42292;49.048;8.374;2022-12-10T00:33:55;2.70;99.90
40504;DHT22;42292;49.048;8.374;2022-12-10T00:36:27;2.70;99.90
40504;DHT22;42292;49.048;8.374;2022-12-10T00:38:56;2.70;99.90
40504;DHT22;42292;49.048;8.374;2022-12-10T00:41:24;2.70;99.90
40504;DHT22;42292;49.048;8.374;2022-12-10T00:43:49;2.60;99.90
40504;DHT22;42292;49.048;8.374;2022-12-10T00:46:16;2.60;99.90
40504;DHT22;42292;49.048;8.374;2022-12-10T00:48:43;2.70;99.90
40504;DHT22;42292;49.048;8.374;2022-12-10T00:51:18;2.60;99.90
40504;DHT22;42292;49.048;8.374;2022-12-10T00:53:45;2.60;99.90
40504;DHT22;42292;49.048;8.374;2022-12-10T00:56:18;2.60;99.90
40504;DHT22;42292;49.048;8.374;2022-12-10T00:58:45;2.60;99.90
40504;DHT22;42292;49.048;8.374;2022-12-10T01:03:47;2.60;99.90
40504;DHT22;42292;49.048;8.374;2022-12-10T01:08:44;2.70;99.90
40504;DHT22;42292;49.048;8.374;2022-12-10T01:11:12;2.60;99.90
40504;DHT22;42292;49.048;8.374;2022-12-10T01:13:44;2.50;99.90
40504;DHT22;42292;49.048;8.374;2022-12-10T01:16:12;2.50;99.90
40504;DHT22;42292;49.048;8.374;2022-12-10T01:18:38;2.50;99.90
40504;DHT22;42292;49.048;8.374;2022-12-10T01:21:15;2.60;99.90
40504;DHT22;42292;49.048;8.374;2022-12-10T01:23:42;2.60;99.90
40504;DHT22;42292;49.048;8.374;2022-12-10T01:26:12;2.60;99.90
40504;DHT22;42292;49.048;8.374;2022-12-10T01:28:39;2.60;99.90
40504;DHT22;42292;49.048;8.374;2022-12-10T01:31:08;2.50;99.90
40504;DHT22;42292;49.048;8.374;2022-12-10T01:33:37;2.50;99.90
40504;DHT22;42292;49.048;8.374;2022-12-10T01:36:07;2.60;99.90
40504;DHT22;42292;49.048;8.374;2022-12-10T01:38:33;2.60;99.90
40504;DHT22;42292;49.048;8.374;2022-12-10T01:41:02;2.60;99.90
40504;DHT22;42292;49.048;8.374;2022-12-10T01:43:47;2.50;99.90
40504;DHT22;42292;49.048;8.374;2022-12-10T01:46:14;2.50;99.90
40504;DHT22;42292;49.048;8.374;2022-12-10T01:48:39;2.60;99.90
40504;DHT22;42292;49.048;8.374;2022-12-10T01:51:07;2.60;99.90
40504;DHT22;42292;49.048;8.374;2022-12-10T01:53:35;2.50;99.90
40504;DHT22;42292;49.048;8.374;2022-12-10T01:56:03;2.40;99.90
40504;DHT22;42292;49.048;8.374;2022-12-10T01:58:29;2.50;99.90
40504;DHT22;42292;49.048;8.374;2022-12-10T02:01:08;2.40;99.90
40504;DHT22;42292;49.048;8.374;2022-12-10T02:03:51;2.40;99.90
40504;DHT22;42292;49.048;8.374;2022-12-10T02:09:01;2.40;99.90
40504;DHT22;42292;49.048;8.374;2022-12-10T02:12:11;2.40;99.90
40504;DHT22;42292;49.048;8.374;2022-12-10T02:15:00;2.40;99.90
40504;DHT22;42292;49.048;8.374;2022-12-10T02:17:37;2.30;99.90
40504;DHT22;42292;49.048;8.374;2022-12-10T02:20:39;2.30;99.90
40504;DHT22;42292;49.048;8.374;2022-12-10T02:23:13;2.30;99.90
40504;DHT22;42292;49.048;8.374;2022-12-10T02:25:54;2.30;99.90
40504;DHT22;42292;49.048;8.374;2022-12-10T02:31:23;2.30;99.90
40504;DHT22;42292;49.048;8.374;2022-12-10T02:33:53;2.30;99.90
40504;DHT22;42292;49.048;8.374;2022-12-10T02:36:24;2.20;99.90
40504;DHT22;42292;49.048;8.374;2022-12-10T02:38:55;2.20;99.90
40504;DHT22;42292;49.048;8.374;2022-12-10T02:41:33;2.40;99.90
40504;DHT22;42292;49.048;8.374;2022-12-10T02:44:02;2.40;99.90
40504;DHT22;42292;49.048;8.374;2022-12-10T02:46:32;2.30;99.90
40504;DHT22;42292;49.048;8.374;2022-12-10T02:49:00;2.30;99.90
40504;DHT22;42292;49.048;8.374;2022-12-10T02:51:29;2.30;99.90
40504;DHT22;42292;49.048;8.374;2022-12-10T02:54:03;2.20;99.90
40504;DHT22;42292;49.048;8.374;2022-12-10T02:56:52;2.20;99.90
40504;DHT22;42292;49.048;8.374;2022-12-10T03:00:11;2.10;99.90
40504;DHT22;42292;49.048;8.374;2022-12-10T03:02:31;2.10;99.90
40504;DHT22;42292;49.048;8.374;2022-12-10T03:05:17;2.00;99.90
40504;DHT22;42292;49.048;8.374;2022-12-10T03:08:03;2.10;99.90
40504;DHT22;42292;49.048;8.374;2022-12-10T03:10:34;2.10;99.90
40504;DHT22;42292;49.048;8.374;2022-12-10T03:13:06;2.10;99.90
40504;DHT22;42292;49.048;8.374;2022-12-10T03:15:35;2.10;99.90
40504;DHT22;42292;49.048;8.374;2022-12-10T03:18:03;2.10;99.90
40504;DHT22;42292;49.048;8.374;2022-12-10T03:20:36;2.20;99.90
40504;DHT22;42292;49.048;8.374;2022-12-10T03:23:03;2.20;99.90
40504;DHT22;42292;49.048;8.374;2022-12-10T03:25:32;2.20;99.90
40504;DHT22;42292;49.048;8.374;2022-12-10T03:27:59;2.20;99.90
40504;DHT22;42292;49.048;8.374;2022-12-10T03:30:28;2.20;99.90
40504;DHT22;42292;49.048;8.374;2022-12-10T03:33:01;2.10;99.90
40504;DHT22;42292;49.048;8.374;2022-12-10T03:35:30;2.10;99.90
40504;DHT22;42292;49.048;8.374;2022-12-10T03:37:56;2.20;99.90
40504;DHT22;42292;49.048;8.374;2022-12-10T03:40:25;2.20;99.90
40504;DHT22;42292;49.048;8.374;2022-12-10T03:42:51;2.10;99.90
40504;DHT22;42292;49.048;8.374;2022-12-10T03:45:16;2.10;99.90
40504;DHT22;42292;49.048;8.374;2022-12-10T03:47:42;2.00;99.90
40504;DHT22;42292;49.048;8.374;2022-12-10T03:50:08;2.10;99.90
40504;DHT22;42292;49.048;8.374;2022-12-10T03:52:34;2.10;99.90
40504;DHT22;42292;49.048;8.374;2022-12-10T03:55:05;2.10;99.90
40504;DHT22;42292;49.048;8.374;2022-12-10T03:57:35;2.10;99.90
40504;DHT22;42292;49.048;8.374;2022-12-10T04:00:03;2.10;99.90
40504;DHT22;42292;49.048;8.374;2022-12-10T04:02:29;2.10;99.90
40504;DHT22;42292;49.048;8.374;2022-12-10T04:04:56;2.10;99.90
40504;DHT22;42292;49.048;8.374;2022-12-10T04:07:24;2.10;99.90
40504;DHT22;42292;49.048;8.374;2022-12-10T04:09:49;2.00;99.90
40504;DHT22;42292;49.048;8.374;2022-12-10T04:12:15;2.00;99.90
40504;DHT22;42292;49.048;8.374;2022-12-10T04:14:41;2.10;99.90
40504;DHT22;42292;49.048;8.374;2022-12-10T04:17:27;2.10;99.90
40504;DHT22;42292;49.048;8.374;2022-12-10T04:19:53;2.10;99.90
40504;DHT22;42292;49.048;8.374;2022-12-10T04:22:18;2.10;99.90
40504;DHT22;42292;49.048;8.374;2022-12-10T04:25:03;2.00;99.90
40504;DHT22;42292;49.048;8.374;2022-12-10T04:27:50;2.00;99.90
40504;DHT22;42292;49.048;8.374;2022-12-10T04:30:18;2.00;99.90
40504;DHT22;42292;49.048;8.374;2022-12-10T04:32:48;1.90;99.90
40504;DHT22;42292;49.048;8.374;2022-12-10T04:35:16;1.90;99.90
40504;DHT22;42292;49.048;8.374;2022-12-10T04:37:42;2.00;99.90
40504;DHT22;42292;49.048;8.374;2022-12-10T04:40:12;2.00;99.90
40504;DHT22;42292;49.048;8.374;2022-12-10T04:42:40;2.10;99.90
40504;DHT22;42292;49.048;8.374;2022-12-10T04:45:11;2.00;99.90
40504;DHT22;42292;49.048;8.374;2022-12-10T04:47:36;2.10;99.90
40504;DHT22;42292;49.048;8.374;2022-12-10T04:50:05;2.10;99.90
40504;DHT22;42292;49.048;8.374;2022-12-10T04:52:33;2.00;99.90
40504;DHT22;42292;49.048;8.374;2022-12-10T04:54:58;2.00;99.90
40504;DHT22;42292;49.048;8.374;2022-12-10T04:57:24;2.00;99.90
40504;DHT22;42292;49.048;8.374;2022-12-10T04:59:49;2.00;99.90
40504;DHT22;42292;49.048;8.374;2022-12-10T05:02:15;2.10;99.90
40504;DHT22;42292;49.048;8.374;2022-12-10T05:04:43;2.00;99.90
40504;DHT22;42292;49.048;8.374;2022-12-10T05:07:13;2.00;99.90
40504;DHT22;42292;49.048;8.374;2022-12-10T05:09:38;2.00;99.90
40504;DHT22;42292;49.048;8.374;2022-12-10T05:12:06;1.90;99.90
40504;DHT22;42292;49.048;8.374;2022-12-10T05:14:32;1.90;99.90
40504;DHT22;42292;49.048;8.374;2022-12-10T05:16:58;1.90;99.90
40504;DHT22;42292;49.048;8.374;2022-12-10T05:19:23;1.90;99.90
40504;DHT22;42292;49.048;8.374;2022-12-10T05:21:51;1.90;99.90
40504;DHT22;42292;49.048;8.374;2022-12-10T05:24:36;2.00;99.90
40504;DHT22;42292;49.048;8.374;2022-12-10T05:27:04;2.00;99.90
40504;DHT22;42292;49.048;8.374;2022-12-10T05:29:31;1.90;99.90
40504;DHT22;42292;49.048;8.374;2022-12-10T05:31:57;1.90;99.90
40504;DHT22;42292;49.048;8.374;2022-12-10T05:34:22;1.90;99.90
40504;DHT22;42292;49.048;8.374;2022-12-10T05:36:51;1.80;99.90
40504;DHT22;42292;49.048;8.374;2022-12-10T05:39:19;1.90;99.90
40504;DHT22;42292;49.048;8.374;2022-12-10T05:41:47;1.90;99.90
40504;DHT22;42292;49.048;8.374;2022-12-10T05:44:12;1.80;99.90
40504;DHT22;42292;49.048;8.374;2022-12-10T05:46:41;1.80;99.90
40504;DHT22;42292;49.048;8.374;2022-12-10T05:49:07;1.90;99.90
40504;DHT22;42292;49.048;8.374;2022-12-10T05:51:35;1.80;99.90
40504;DHT22;42292;49.048;8.374;2022-12-10T05:54:02;1.80;99.90
40504;DHT22;42292;49.048;8.374;2022-12-10T05:56:31;1.80;99.90
40504;DHT22;42292;49.048;8.374;2022-12-10T05:58:59;1.80;99.90
40504;DHT22;42292;49.048;8.374;2022-12-10T06:01:31;1.80;99.90
40504;DHT22;42292;49.048;8.374;2022-12-10T06:04:03;1.80;99.90
40504;DHT22;42292;49.048;8.374;2022-12-10T06:06:31;1.80;99.90
40504;DHT22;42292;49.048;8.374;2022-12-10T06:09:02;1.80;99.90
40504;DHT22;42292;49.048;8.374;2022-12-10T06:11:31;1.80;99.90
40504;DHT22;42292;49.048;8.374;2022-12-10T06:13:57;1.80;99.90
40504;DHT22;42292;49.048;8.374;2022-12-10T06:16:26;1.80;99.90
40504;DHT22;42292;49.048;8.374;2022-12-10T06:18:52;1.80;99.90
40504;DHT22;42292;49.048;8.374;2022-12-10T06:21:19;1.80;99.90
40504;DHT22;42292;49.048;8.374;2022-12-10T06:23:48;1.70;99.90
40504;DHT22;42292;49.048;8.374;2022-12-10T06:26:18;1.70;99.90
40504;DHT22;42292;49.048;8.374;2022-12-10T06:28:47;1.70;99.90
40504;DHT22;42292;49.048;8.374;2022-12-10T06:31:20;1.70;99.90
40504;DHT22;42292;49.048;8.374;2022-12-10T06:33:46;1.60;99.90
40504;DHT22;42292;49.048;8.374;2022-12-10T06:36:13;1.60;99.90
40504;DHT22;42292;49.048;8.374;2022-12-10T06:38:42;1.60;99.90
40504;DHT22;42292;49.048;8.374;2022-12-10T06:41:10;1.60;99.90
40504;DHT22;42292;49.048;8.374;2022-12-10T06:43:36;1.70;99.90
40504;DHT22;42292;49.048;8.374;2022-12-10T06:46:10;1.60;99.90
40504;DHT22;42292;49.048;8.374;2022-12-10T06:48:36;1.70;99.90
40504;DHT22;42292;49.048;8.374;2022-12-10T06:51:03;1.60;99.90
40504;DHT22;42292;49.048;8.374;2022-12-10T06:53:29;1.60;99.90
40504;DHT22;42292;49.048;8.374;2022-12-10T06:55:58;1.60;99.90
40504;DHT22;42292;49.048;8.374;2022-12-10T06:58:24;1.60;99.90
40504;DHT22;42292;49.048;8.374;2022-12-10T07:00:49;1.70;99.90
40504;DHT22;42292;49.048;8.374;2022-12-10T07:03:17;1.70;99.90
40504;DHT22;42292;49.048;8.374;2022-12-10T07:05:43;1.70;99.90
40504;DHT22;42292;49.048;8.374;2022-12-10T07:08:08;1.70;99.90
40504;DHT22;42292;49.048;8.374;2022-12-10T07:10:35;1.70;99.90
40504;DHT22;42292;49.048;8.374;2022-12-10T07:13:08;1.70;99.90
40504;DHT22;42292;49.048;8.374;2022-12-10T07:15:33;1.70;99.90
40504;DHT22;42292;49.048;8.374;2022-12-10T07:17:59;1.70;99.90
40504;DHT22;42292;49.048;8.374;2022-12-10T07:20:24;1.70;99.90
40504;DHT22;42292;49.048;8.374;2022-12-10T07:22:52;1.70;99.90
40504;DHT22;42292;49.048;8.374;2022-12-10T07:25:20;1.60;99.90
40504;DHT22;42292;49.048;8.374;2022-12-10T07:27:48;1.70;99.90
40504;DHT22;42292;49.048;8.374;2022-12-10T07:30:14;1.70;99.90
40504;DHT22;42292;49.048;8.374;2022-12-10T07:32:41;1.70;99.90
40504;DHT22;42292;49.048;8.374;2022-12-10T07:35:07;1.70;99.90
40504;DHT22;42292;49.048;8.374;2022-12-10T07:37:33;1.70;99.90
40504;DHT22;42292;49.048;8.374;2022-12-10T07:40:01;1.70;99.90
40504;DHT22;42292;49.048;8.374;2022-12-10T07:42:29;1.80;99.90
40504;DHT22;42292;49.048;8.374;2022-12-10T07:44:55;1.80;99.90
40504;DHT22;42292;49.048;8.374;2022-12-10T07:47:22;1.80;99.90
40504;DHT22;42292;49.048;8.374;2022-12-10T07:49:48;1.80;99.90
40504;DHT22;42292;49.048;8.374;2022-12-10T07:52:13;1.90;99.90
40504;DHT22;42292;49.048;8.374;2022-12-10T07:54:39;1.90;99.90
40504;DHT22;42292;49.048;8.374;2022-12-10T07:57:07;2.00;99.90
40504;DHT22;42292;49.048;8.374;2022-12-10T07:59:35;1.90;99.90
40504;DHT22;42292;49.048;8.374;2022-12-10T08:02:01;1.90;99.90
40504;DHT22;42292;49.048;8.374;2022-12-10T08:04:31;1.90;99.90
40504;DHT22;42292;49.048;8.374;2022-12-10T08:06:57;1.90;99.90
40504;DHT22;42292;49.048;8.374;2022-12-10T08:09:25;1.90;99.90
40504;DHT22;42292;49.048;8.374;2022-12-10T08:11:52;1.90;99.90
40504;DHT22;42292;49.048;8.374;2022-12-10T08:14:18;2.00;99.90
40504;DHT22;42292;49.048;8.374;2022-12-10T08:16:46;2.00;99.90
40504;DHT22;42292;49.048;8.374;2022-12-10T08:19:11;2.00;99.90
40504;DHT22;42292;49.048;8.374;2022-12-10T08:21:39;2.10;99.90
40504;DHT22;42292;49.048;8.374;2022-12-10T08:24:05;2.10;99.90
40504;DHT22;42292;49.048;8.374;2022-12-10T08:26:32;2.10;99.90
40504;DHT22;42292;49.048;8.374;2022-12-10T08:28:58;2.20;99.90
40504;DHT22;42292;49.048;8.374;2022-12-10T08:31:26;2.20;99.90
40504;DHT22;42292;49.048;8.374;2022-12-10T08:33:52;2.10;99.90
40504;DHT22;42292;49.048;8.374;2022-12-10T08:36:18;2.10;99.90
40504;DHT22;42292;49.048;8.374;2022-12-10T08:38:46;2.20;99.90
40504;DHT22;42292;49.048;8.374;2022-12-10T08:41:18;2.10;99.90
40504;DHT22;42292;49.048;8.374;2022-12-10T08:43:46;2.30;99.90
40504;DHT22;42292;49.048;8.374;2022-12-10T08:46:13;2.40;99.90
40504;DHT22;42292;49.048;8.374;2022-12-10T08:48:39;2.40;99.90
40504;DHT22;42292;49.048;8.374;2022-12-10T08:51:13;2.40;99.90
40504;DHT22;42292;49.048;8.374;2022-12-10T08:53:42;2.60;99.90
40504;DHT22;42292;49.048;8.374;2022-12-10T08:56:08;2.60;99.90
40504;DHT22;42292;49.048;8.374;2022-12-10T08:58:34;2.50;99.90
40504;DHT22;42292;49.048;8.374;2022-12-10T09:01:07;2.50;99.90
40504;DHT22;42292;49.048;8.374;2022-12-10T09:03:36;2.50;99.90
40504;DHT22;42292;49.048;8.374;2022-12-10T09:06:04;2.40;99.90
40504;DHT22;42292;49.048;8.374;2022-12-10T09:08:30;2.60;99.90
40504;DHT22;42292;49.048;8.374;2022-12-10T09:10:56;2.50;99.90
40504;DHT22;42292;49.048;8.374;2022-12-10T09:13:22;2.40;99.90
40504;DHT22;42292;49.048;8.374;2022-12-10T09:15:53;2.50;99.90
40504;DHT22;42292;49.048;8.374;2022-12-10T09:18:19;2.70;99.90
40504;DHT22;42292;49.048;8.374;2022-12-10T09:20:44;2.80;99.90
40504;DHT22;42292;49.048;8.374;2022-12-10T09:23:10;2.80;99.90
40504;DHT22;42292;49.048;8.374;2022-12-10T09:25:38;2.60;99.90
40504;DHT22;42292;49.048;8.374;2022-12-10T09:28:08;2.70;99.90
40504;DHT22;42292;49.048;8.374;2022-12-10T09:30:36;2.80;99.90
40504;DHT22;42292;49.048;8.374;2022-12-10T09:33:04;2.80;99.90
40504;DHT22;42292;49.048;8.374;2022-12-10T09:35:30;2.80;99.90
40504;DHT22;42292;49.048;8.374;2022-12-10T09:37:56;2.90;99.90
40504;DHT22;42292;49.048;8.374;2022-12-10T09:40:59;3.10;99.90
40504;DHT22;42292;49.048;8.374;2022-12-10T09:43:32;3.10;99.90
40504;DHT22;42292;49.048;8.374;2022-12-10T09:49:14;2.90;99.90
40504;DHT22;42292;49.048;8.374;2022-12-10T09:51:42;3.00;99.90
40504;DHT22;42292;49.048;8.374;2022-12-10T09:54:27;3.00;99.90
40504;DHT22;42292;49.048;8.374;2022-12-10T09:56:55;2.90;99.90
40504;DHT22;42292;49.048;8.374;2022-12-10T10:02:22;2.80;99.90
40504;DHT22;42292;49.048;8.374;2022-12-10T10:04:53;2.90;99.90
40504;DHT22;42292;49.048;8.374;2022-12-10T10:07:22;2.90;99.90
40504;DHT22;42292;49.048;8.374;2022-12-10T10:09:51;2.90;99.90
40504;DHT22;42292;49.048;8.374;2022-12-10T10:12:22;2.80;99.90
40504;DHT22;42292;49.048;8.374;2022-12-10T10:14:48;2.80;99.90
40504;DHT22;42292;49.048;8.374;2022-12-10T10:17:29;2.60;99.90
40504;DHT22;42292;49.048;8.374;2022-12-10T10:19:56;2.70;99.90
40504;DHT22;42292;49.048;8.374;2022-12-10T10:22:22;2.90;99.90
40504;DHT22;42292;49.048;8.374;2022-12-10T10:24:47;3.00;99.90
40504;DHT22;42292;49.048;8.374;2022-12-10T10:27:22;3.10;99.90
40504;DHT22;42292;49.048;8.374;2022-12-10T10:29:51;3.10;99.90
40504;DHT22;42292;49.048;8.374;2022-12-10T10:32:25;3.20;99.90
40504;DHT22;42292;49.048;8.374;2022-12-10T10:34:57;3.10;99.90
40504;DHT22;42292;49.048;8.374;2022-12-10T10:37:28;3.20;99.90
40504;DHT22;42292;49.048;8.374;2022-12-10T10:39:57;3.00;99.90
40504;DHT22;42292;49.048;8.374;2022-12-10T10:44:51;3.30;99.90
40504;DHT22;42292;49.048;8.374;2022-12-10T10:47:31;3.40;99.90
40504;DHT22;42292;49.048;8.374;2022-12-10T10:49:57;3.40;99.90
40504;DHT22;42292;49.048;8.374;2022-12-10T10:52:30;3.20;99.90
40504;DHT22;42292;49.048;8.374;2022-12-10T10:55:00;3.40;99.90
40504;DHT22;42292;49.048;8.374;2022-12-10T10:57:37;3.50;99.90
40504;DHT22;42292;49.048;8.374;2022-12-10T11:00:10;3.40;99.90
40504;DHT22;42292;49.048;8.374;2022-12-10T11:02:42;3.50;99.90
40504;DHT22;42292;49.048;8.374;2022-12-10T11:05:24;3.60;99.90
40504;DHT22;42292;49.048;8.374;2022-12-10T11:08:02;3.50;99.90
40504;DHT22;42292;49.048;8.374;2022-12-10T11:10:29;3.50;99.90
40504;DHT22;42292;49.048;8.374;2022-12-10T11:13:04;3.60;99.90
40504;DHT22;42292;49.048;8.374;2022-12-10T11:15:37;3.70;99.90
40504;DHT22;42292;49.048;8.374;2022-12-10T11:18:24;3.80;99.90
40504;DHT22;42292;49.048;8.374;2022-12-10T11:23:58;3.60;99.90
40504;DHT22;42292;49.048;8.374;2022-12-10T11:27:02;3.80;99.90
40504;DHT22;42292;49.048;8.374;2022-12-10T11:32:16;3.70;99.90
40504;DHT22;42292;49.048;8.374;2022-12-10T11:35:19;3.90;99.90
40504;DHT22;42292;49.048;8.374;2022-12-10T11:40:46;4.10;99.90
40504;DHT22;42292;49.048;8.374;2022-12-10T11:48:55;4.40;99.90
40504;DHT22;42292;49.048;8.374;2022-12-10T11:54:39;4.60;99.90
40504;DHT22;42292;49.048;8.374;2022-12-10T12:00:00;4.60;99.90
40504;DHT22;42292;49.048;8.374;2022-12-10T12:03:31;4.30;99.90
40504;DHT22;42292;49.048;8.374;2022-12-10T12:08:30;4.60;99.90
40504;DHT22;42292;49.048;8.374;2022-12-10T12:14:05;5.00;99.90
40504;DHT22;42292;49.048;8.374;2022-12-10T12:16:43;5.50;99.90
40504;DHT22;42292;49.048;8.374;2022-12-10T12:19:14;6.00;99.90
40504;DHT22;42292;49.048;8.374;2022-12-10T12:21:44;6.60;99.90
40504;DHT22;42292;49.048;8.374;2022-12-10T12:26:45;9.10;99.90
40504;DHT22;42292;49.048;8.374;2022-12-10T12:34:51;8.30;99.90
40504;DHT22;42292;49.048;8.374;2022-12-10T12:37:22;8.00;99.90
40504;DHT22;42292;49.048;8.374;2022-12-10T12:40:09;7.50;99.90
40504;DHT22;42292;49.048;8.374;2022-12-10T12:42:53;7.30;99.90
40504;DHT22;42292;49.048;8.374;2022-12-10T12:45:33;6.70;99.90
40504;DHT22;42292;49.048;8.374;2022-12-10T12:48:23;6.40;99.90
40504;DHT22;42292;49.048;8.374;2022-12-10T12:51:11;5.80;99.90
40504;DHT22;42292;49.048;8.374;2022-12-10T12:53:38;5.50;99.90
40504;DHT22;42292;49.048;8.374;2022-12-10T12:56:17;5.30;99.90
40504;DHT22;42292;49.048;8.374;2022-12-10T13:04:03;4.80;99.90
40504;DHT22;42292;49.048;8.374;2022-12-10T13:06:32;4.50;99.90
40504;DHT22;42292;49.048;8.374;2022-12-10T13:11:41;4.30;99.90
40504;DHT22;42292;49.048;8.374;2022-12-10T13:29:56;3.80;99.90
40504;DHT22;42292;49.048;8.374;2022-12-10T13:40:39;3.60;99.90
40504;DHT22;42292;49.048;8.374;2022-12-10T13:43:36;3.80;99.90
40504;DHT22;42292;49.048;8.374;2022-12-10T13:48:54;3.60;99.90
40504;DHT22;42292;49.048;8.374;2022-12-10T14:06:56;3.30;99.90
40504;DHT22;42292;49.048;8.374;2022-12-10T14:09:27;3.40;99.90
40504;DHT22;42292;49.048;8.374;2022-12-10T14:11:57;3.20;99.90
40504;DHT22;42292;49.048;8.374;2022-12-10T14:14:34;3.20;99.90
40504;DHT22;42292;49.048;8.374;2022-12-10T14:17:12;3.30;99.90
40504;DHT22;42292;49.048;8.374;2022-12-10T14:19:42;3.30;99.90
40504;DHT22;42292;49.048;8.374;2022-12-10T14:22:13;3.50;99.90
40504;DHT22;42292;49.048;8.374;2022-12-10T14:24:43;3.60;99.90
40504;DHT22;42292;49.048;8.374;2022-12-10T14:27:15;3.70;99.90
40504;DHT22;42292;49.048;8.374;2022-12-10T14:29:50;3.60;99.90
40504;DHT22;42292;49.048;8.374;2022-12-10T14:32:27;3.60;99.90
40504;DHT22;42292;49.048;8.374;2022-12-10T14:34:57;3.50;99.90
40504;DHT22;42292;49.048;8.374;2022-12-10T14:37:26;3.70;99.90
40504;DHT22;42292;49.048;8.374;2022-12-10T14:39:54;3.70;99.90
40504;DHT22;42292;49.048;8.374;2022-12-10T14:42:20;3.80;99.90
40504;DHT22;42292;49.048;8.374;2022-12-10T14:44:51;3.70;99.90
40504;DHT22;42292;49.048;8.374;2022-12-10T14:47:22;3.50;99.90
40504;DHT22;42292;49.048;8.374;2022-12-10T14:49:50;3.40;99.90
40504;DHT22;42292;49.048;8.374;2022-12-10T14:52:30;3.30;99.90
40504;DHT22;42292;49.048;8.374;2022-12-10T14:55:01;3.20;99.90
40504;DHT22;42292;49.048;8.374;2022-12-10T14:57:34;3.20;99.90
40504;DHT22;42292;49.048;8.374;2022-12-10T15:02:41;3.10;99.90
40504;DHT22;42292;49.048;8.374;2022-12-10T15:05:20;3.30;99.90
40504;DHT22;42292;49.048;8.374;2022-12-10T15:08:27;3.20;99.90
40504;DHT22;42292;49.048;8.374;2022-12-10T15:10:50;3.00;99.90
40504;DHT22;42292;49.048;8.374;2022-12-10T15:13:39;3.10;99.90
40504;DHT22;42292;49.048;8.374;2022-12-10T15:16:05;3.10;99.90
40504;DHT22;42292;49.048;8.374;2022-12-10T15:18:37;3.10;99.90
40504;DHT22;42292;49.048;8.374;2022-12-10T15:21:16;3.30;99.90
40504;DHT22;42292;49.048;8.374;2022-12-10T15:23:45;3.20;99.90
40504;DHT22;42292;49.048;8.374;2022-12-10T15:26:23;3.10;99.90
40504;DHT22;42292;49.048;8.374;2022-12-10T15:29:15;2.90;99.90
40504;DHT22;42292;49.048;8.374;2022-12-10T15:31:41;2.90;99.90
40504;DHT22;42292;49.048;8.374;2022-12-10T15:34:12;3.00;99.90
40504;DHT22;42292;49.048;8.374;2022-12-10T15:36:43;3.00;99.90
40504;DHT22;42292;49.048;8.374;2022-12-10T15:39:23;2.90;99.90
40504;DHT22;42292;49.048;8.374;2022-12-10T15:41:56;2.80;99.90
40504;DHT22;42292;49.048;8.374;2022-12-10T15:44:33;2.70;99.90
40504;DHT22;42292;49.048;8.374;2022-12-10T15:49:47;2.70;99.90
40504;DHT22;42292;49.048;8.374;2022-12-10T15:54:47;2.70;99.90
40504;DHT22;42292;49.048;8.374;2022-12-10T15:59:40;2.80;99.90
40504;DHT22;42292;49.048;8.374;2022-12-10T16:02:37;2.70;99.90
40504;DHT22;42292;49.048;8.374;2022-12-10T16:05:36;2.80;99.90
40504;DHT22;42292;49.048;8.374;2022-12-10T16:10:44;2.70;99.90
40504;DHT22;42292;49.048;8.374;2022-12-10T16:13:15;2.70;99.90
40504;DHT22;42292;49.048;8.374;2022-12-10T16:18:18;2.60;99.90
40504;DHT22;42292;49.048;8.374;2022-12-10T16:20:46;2.60;99.90
40504;DHT22;42292;49.048;8.374;2022-12-10T16:23:12;2.60;99.90
40504;DHT22;42292;49.048;8.374;2022-12-10T16:25:40;2.60;99.90
40504;DHT22;42292;49.048;8.374;2022-12-10T16:28:18;2.60;99.90
40504;DHT22;42292;49.048;8.374;2022-12-10T16:33:15;2.50;99.90
40504;DHT22;42292;49.048;8.374;2022-12-10T16:35:40;2.50;99.90
40504;DHT22;42292;49.048;8.374;2022-12-10T16:38:06;2.50;99.90
40504;DHT22;42292;49.048;8.374;2022-12-10T16:40:34;2.50;99.90
40504;DHT22;42292;49.048;8.374;2022-12-10T16:42:59;2.40;99.90
40504;DHT22;42292;49.048;8.374;2022-12-10T16:45:40;2.50;99.90
40504;DHT22;42292;49.048;8.374;2022-12-10T16:48:06;2.40;99.90
40504;DHT22;42292;49.048;8.374;2022-12-10T16:50:36;2.50;99.90
40504;DHT22;42292;49.048;8.374;2022-12-10T16:53:18;2.50;99.90
40504;DHT22;42292;49.048;8.374;2022-12-10T16:55:47;2.40;99.90
40504;DHT22;42292;49.048;8.374;2022-12-10T16:58:16;2.30;99.90
40504;DHT22;42292;49.048;8.374;2022-12-10T17:00:44;2.30;99.90
40504;DHT22;42292;49.048;8.374;2022-12-10T17:03:11;2.20;99.90
40504;DHT22;42292;49.048;8.374;2022-12-10T17:05:54;2.20;99.90
40504;DHT22;42292;49.048;8.374;2022-12-10T17:08:21;2.20;99.90
40504;DHT22;42292;49.048;8.374;2022-12-10T17:10:48;2.20;99.90
40504;DHT22;42292;49.048;8.374;2022-12-10T17:13:33;2.20;99.90
40504;DHT22;42292;49.048;8.374;2022-12-10T17:15:59;2.20;99.90
40504;DHT22;42292;49.048;8.374;2022-12-10T17:18:24;2.20;99.90
40504;DHT22;42292;49.048;8.374;2022-12-10T17:20:50;2.10;99.90
40504;DHT22;42292;49.048;8.374;2022-12-10T17:23:16;2.10;99.90
40504;DHT22;42292;49.048;8.374;2022-12-10T17:25:42;2.10;99.90
40504;DHT22;42292;49.048;8.374;2022-12-10T17:28:14;2.10;99.90
40504;DHT22;42292;49.048;8.374;2022-12-10T17:30:41;2.20;99.90
40504;DHT22;42292;49.048;8.374;2022-12-10T17:33:08;2.20;99.90
40504;DHT22;42292;49.048;8.374;2022-12-10T17:35:36;2.30;99.90
40504;DHT22;42292;49.048;8.374;2022-12-10T17:38:02;2.30;99.90
40504;DHT22;42292;49.048;8.374;2022-12-10T17:40:32;2.60;99.90
40504;DHT22;42292;49.048;8.374;2022-12-10T17:42:59;2.60;99.90
40504;DHT22;42292;49.048;8.374;2022-12-10T17:45:27;2.60;99.90
40504;DHT22;42292;49.048;8.374;2022-12-10T17:47:53;2.70;99.90
40504;DHT22;42292;49.048;8.374;2022-12-10T17:50:33;2.50;99.90
40504;DHT22;42292;49.048;8.374;2022-12-10T17:53:08;2.30;99.90
40504;DHT22;42292;49.048;8.374;2022-12-10T17:55:36;2.10;99.90
40504;DHT22;42292;49.048;8.374;2022-12-10T17:58:04;2.00;99.90
40504;DHT22;42292;49.048;8.374;2022-12-10T18:00:33;1.90;99.90
40504;DHT22;42292;49.048;8.374;2022-12-10T18:02:59;1.70;99.90
40504;DHT22;42292;49.048;8.374;2022-12-10T18:05:29;1.60;99.90
40504;DHT22;42292;49.048;8.374;2022-12-10T18:07:59;1.40;99.90
40504;DHT22;42292;49.048;8.374;2022-12-10T18:10:28;1.30;99.90